SBOSBO TRN / LIMF
Speedbird OnlineSpeedbird Online TRN / LIMF

Turin Airport
10:30 17.9°C

Location Torino, Italy
Latitude: 45.200802
Longitude: 7.64963
Web Airport Website | Wikipedia
Altitude 301 Meter / 989 Feet
Distance 893 KM / 555 Miles
from London.
Time Zone UTC +2 hours (Europe/Rome)
Codes IATA: TRN
ICAO: LIMF
Currency £1 equals EUR 1.15
Runways
RunwayLength (m)Surface
183300Asphalt
363300Asphalt
Radio
TypeDescriptionFrequency
APPAPP129.275
APPAPP23.44
ATISATIS120.475
GNDGND121.7
TWRTWR118.5
Live ATC
METAR LIMF 060750Z VRB02KT 3500 BR NSC 16/15 Q1028
TAF TAF LIMF 060500Z 0606/0706 VRB05KT 7000 BKN040 TEMPO 0622/0706 3000 BR
Weather As Of 06 Oct 2022 10:30
Description Mist
Wind 4 km/h from North (0°)
Cloud Cover 2%
Precipitation Rain: none, Snow: none
Sunrise 07:33
Sunset 19:01
Lounges Piemonte Lounge , Main Terminal
Rotations During the last 90 days there were
54 flights from LGW
54 flights to LGW


© 2017-2022 Speedbird Online